createdAt,value
2023-02-11T00:00:55.262Z,85.24
2023-02-11T00:01:54.557Z,85.34
2023-02-11T00:02:54.880Z,85.19
2023-02-11T00:03:55.348Z,85.24
2023-02-11T00:04:54.654Z,85.24
2023-02-11T00:05:55.099Z,85.19
2023-02-11T00:06:54.428Z,85.09
2023-02-11T00:07:54.907Z,85.09
2023-02-11T00:08:54.247Z,85.09
2023-02-11T00:09:54.643Z,85.09
2023-02-11T00:10:55.106Z,84.99
2023-02-11T00:11:54.374Z,84.88
2023-02-11T00:12:54.888Z,84.88
2023-02-11T00:13:55.203Z,84.99
2023-02-11T00:14:54.544Z,85.13
2023-02-11T00:15:55.105Z,85.09
2023-02-11T00:16:54.341Z,85.13
2023-02-11T00:17:55.663Z,85.13
2023-02-11T00:18:55.081Z,85.24
2023-02-11T00:19:54.488Z,85.24
2023-02-11T00:20:54.848Z,85.24
2023-02-11T00:21:54.275Z,85.44
2023-02-11T00:22:54.625Z,85.55
2023-02-11T00:23:55.029Z,85.65
2023-02-11T00:24:54.363Z,85.86
2023-02-11T00:25:54.776Z,85.86
2023-02-11T00:26:54.164Z,85.86
2023-02-11T00:27:54.697Z,85.75
2023-02-11T00:28:55.928Z,85.75
2023-02-11T00:29:54.325Z,85.65
2023-02-11T00:30:54.845Z,85.55
2023-02-11T00:31:54.216Z,85.55
2023-02-11T00:32:54.574Z,85.44
2023-02-11T00:33:54.930Z,85.44
2023-02-11T00:34:54.214Z,85.44
2023-02-11T00:35:54.564Z,85.40
2023-02-11T00:36:53.906Z,85.30
2023-02-11T00:37:54.307Z,85.40
2023-02-11T00:38:54.702Z,85.30
2023-02-11T00:39:54.544Z,85.30
2023-02-11T00:40:54.409Z,85.40
2023-02-11T00:41:53.824Z,85.40
2023-02-11T00:42:54.169Z,85.55
2023-02-11T00:43:55.522Z,85.55
2023-02-11T00:44:54.021Z,85.55
2023-02-11T00:45:54.371Z,85.65
2023-02-11T00:46:54.759Z,85.65
2023-02-11T00:47:54.048Z,85.65
2023-02-11T00:48:54.427Z,85.55
2023-02-11T00:49:53.833Z,85.44
2023-02-11T00:50:54.180Z,85.55
2023-02-11T00:51:54.665Z,85.55
2023-02-11T00:52:53.913Z,85.55
2023-02-11T00:53:55.445Z,85.55
2023-02-11T00:54:53.693Z,85.44
2023-02-11T00:55:54.082Z,85.44
2023-02-11T00:56:54.465Z,85.34
2023-02-11T00:57:53.852Z,85.44
2023-02-11T00:58:54.207Z,85.44
2023-02-11T00:59:53.645Z,85.44
2023-02-11T01:00:53.926Z,85.55
2023-02-11T01:01:54.265Z,85.55
2023-02-11T01:02:53.589Z,85.55
2023-02-11T01:03:54.136Z,85.55
2023-02-11T01:04:54.471Z,85.55
2023-02-11T01:05:54.614Z,85.44
2023-02-11T01:06:54.974Z,85.44
2023-02-11T01:07:55.316Z,85.34
2023-02-11T01:08:53.690Z,85.24
2023-02-11T01:09:54.235Z,85.13
2023-02-11T01:10:53.374Z,85.03
2023-02-11T01:11:53.779Z,84.92
2023-02-11T01:12:54.166Z,85.03
2023-02-11T01:13:53.450Z,84.92
2023-02-11T01:14:53.807Z,85.03
2023-02-11T01:15:54.428Z,85.24
2023-02-11T01:16:53.492Z,85.38
2023-02-11T01:17:53.857Z,85.58
2023-02-11T01:18:54.178Z,85.58
2023-02-11T01:19:53.485Z,85.58
2023-02-11T01:20:53.852Z,85.69
2023-02-11T01:21:54.258Z,85.69
2023-02-11T01:22:53.556Z,85.89
2023-02-11T01:23:53.892Z,85.79
2023-02-11T01:24:53.222Z,85.79
2023-02-11T01:25:53.654Z,85.89
2023-02-11T01:26:54.090Z,85.89
2023-02-11T01:27:53.291Z,86.10
2023-02-11T01:28:53.605Z,86.21
2023-02-11T01:29:54.009Z,86.41
2023-02-11T01:30:54.301Z,86.41
2023-02-11T01:31:53.637Z,86.52
2023-02-11T01:32:53.336Z,86.52
2023-02-11T01:33:53.581Z,86.52
2023-02-11T01:34:54.035Z,86.52
2023-02-11T01:35:53.577Z,86.41
2023-02-11T01:36:53.618Z,86.41
2023-02-11T01:37:53.989Z,86.41
2023-02-11T01:38:53.273Z,86.52
2023-02-11T01:39:53.671Z,86.52
2023-02-11T01:40:54.972Z,86.41
2023-02-11T01:41:53.329Z,86.41
2023-02-11T01:42:53.719Z,86.41
2023-02-11T01:43:53.005Z,86.52
2023-02-11T01:44:53.374Z,86.52
2023-02-11T01:45:53.821Z,86.41
2023-02-11T01:46:54.120Z,86.41
2023-02-11T01:47:53.468Z,86.31
2023-02-11T01:48:54.888Z,86.21
2023-02-11T01:49:53.163Z,86.21
2023-02-11T01:50:53.612Z,86.21
2023-02-11T01:51:52.903Z,86.21
2023-02-11T01:52:53.238Z,86.10
2023-02-11T01:53:53.588Z,86.10
2023-02-11T01:54:52.869Z,86.00
2023-02-11T01:55:53.248Z,86.10
2023-02-11T01:56:53.790Z,86.10
2023-02-11T01:57:52.969Z,86.21
2023-02-11T01:58:53.266Z,86.31
2023-02-11T01:59:53.608Z,86.31
2023-02-11T02:00:52.994Z,86.41
2023-02-11T02:01:54.323Z,86.31
2023-02-11T02:02:53.735Z,86.21
2023-02-11T02:03:53.060Z,86.31
2023-02-11T02:04:54.314Z,86.31
2023-02-11T02:05:53.625Z,86.41
2023-02-11T02:06:53.014Z,86.41
2023-02-11T02:07:54.354Z,86.41
2023-02-11T02:08:52.806Z,86.31
2023-02-11T02:09:53.076Z,86.31
2023-02-11T02:10:53.472Z,86.31
2023-02-11T02:11:52.748Z,86.31
2023-02-11T02:12:53.117Z,86.41
2023-02-11T02:13:53.782Z,86.31
2023-02-11T02:14:53.791Z,86.31
2023-02-11T02:15:53.581Z,86.21
2023-02-11T02:16:53.532Z,86.21
2023-02-11T02:17:52.955Z,86.21
2023-02-11T02:18:53.177Z,86.10
2023-02-11T02:19:52.648Z,86.10
2023-02-11T02:20:52.944Z,86.10
2023-02-11T02:21:53.330Z,86.00
2023-02-11T02:22:52.643Z,86.10
2023-02-11T02:23:53.021Z,86.00
2023-02-11T02:24:53.414Z,85.89
2023-02-11T02:25:52.646Z,85.79
2023-02-11T02:26:53.039Z,85.79
2023-02-11T02:27:53.407Z,85.79
2023-02-11T02:28:52.672Z,85.75
2023-02-11T02:29:53.014Z,85.69
2023-02-11T02:30:52.479Z,85.58
2023-02-11T02:31:53.708Z,85.58
2023-02-11T02:32:53.988Z,85.55
2023-02-11T02:33:53.292Z,85.58
2023-02-11T02:34:53.657Z,85.69
2023-02-11T02:35:53.062Z,85.65
2023-02-11T02:36:52.472Z,85.65
2023-02-11T02:37:52.757Z,85.69
2023-02-11T02:38:53.131Z,85.65
2023-02-11T02:39:52.463Z,85.79
2023-02-11T02:40:52.857Z,85.89
2023-02-11T02:41:53.197Z,85.79
2023-02-11T02:42:53.462Z,85.79
2023-02-11T02:43:53.823Z,85.79
2023-02-11T02:44:52.227Z,85.69
2023-02-11T02:45:52.771Z,85.69
2023-02-11T02:46:53.085Z,85.69
2023-02-11T02:47:52.224Z,85.69
2023-02-11T02:48:52.609Z,85.79
2023-02-11T02:49:53.902Z,85.79
2023-02-11T02:50:53.207Z,85.89
2023-02-11T02:51:53.579Z,85.89
2023-02-11T02:52:53.044Z,85.79
2023-02-11T02:53:53.201Z,85.69
2023-02-11T02:54:53.553Z,85.58
2023-02-11T02:55:53.895Z,85.58
2023-02-11T02:56:52.288Z,85.58
2023-02-11T02:57:52.669Z,85.69
2023-02-11T02:58:52.996Z,85.79
2023-02-11T02:59:52.295Z,85.79
2023-02-11T03:00:52.688Z,85.89
2023-02-11T03:01:52.976Z,85.89
2023-02-11T03:02:52.339Z,86.00
2023-02-11T03:03:52.864Z,86.00
2023-02-11T03:04:53.001Z,86.10
2023-02-11T03:05:53.593Z,86.21
2023-02-11T03:06:53.698Z,86.21
2023-02-11T03:07:52.028Z,86.10
2023-02-11T03:08:52.441Z,86.00
2023-02-11T03:09:53.030Z,85.89
2023-02-11T03:10:52.069Z,85.89
2023-02-11T03:11:52.432Z,85.89
2023-02-11T03:12:53.762Z,85.79
2023-02-11T03:13:53.046Z,85.69
2023-02-11T03:14:53.426Z,85.48
2023-02-11T03:15:53.268Z,85.48
2023-02-11T03:16:53.122Z,85.48
2023-02-11T03:17:52.517Z,85.73
2023-02-11T03:18:51.839Z,85.83
2023-02-11T03:19:53.172Z,86.04
2023-02-11T03:20:53.658Z,86.15
2023-02-11T03:21:51.873Z,86.35
2023-02-11T03:22:52.246Z,86.49
2023-02-11T03:23:52.599Z,86.60
2023-02-11T03:24:52.884Z,86.70
2023-02-11T03:25:52.575Z,86.70
2023-02-11T03:26:51.636Z,86.70
2023-02-11T03:27:52.053Z,86.80
2023-02-11T03:28:53.297Z,86.91
2023-02-11T03:29:52.603Z,86.91
2023-02-11T03:30:52.136Z,86.91
2023-02-11T03:31:52.508Z,86.95
2023-02-11T03:32:51.801Z,86.95
2023-02-11T03:33:52.072Z,87.05
2023-02-11T03:34:52.517Z,87.16
2023-02-11T03:35:52.012Z,87.47
2023-02-11T03:36:53.173Z,87.57
2023-02-11T03:37:52.614Z,87.78
2023-02-11T03:38:51.953Z,87.78
2023-02-11T03:39:52.317Z,87.78
2023-02-11T03:40:51.640Z,87.84
2023-02-11T03:41:52.973Z,87.95
2023-02-11T03:42:53.356Z,87.95
2023-02-11T03:43:52.630Z,87.84
2023-02-11T03:44:53.044Z,87.84
2023-02-11T03:45:53.984Z,87.84
2023-02-11T03:46:51.684Z,87.74
2023-02-11T03:47:52.102Z,87.74
2023-02-11T03:48:51.466Z,87.74
2023-02-11T03:49:52.697Z,87.63
2023-02-11T03:50:52.044Z,87.63
2023-02-11T03:51:51.412Z,87.63
2023-02-11T03:52:51.751Z,87.63
2023-02-11T03:53:52.192Z,87.74
2023-02-11T03:54:51.412Z,87.95
2023-02-11T03:55:52.904Z,87.95
2023-02-11T03:56:53.071Z,88.05
2023-02-11T03:57:52.377Z,88.05
2023-02-11T03:58:52.757Z,88.05
2023-02-11T03:59:53.069Z,88.09
2023-02-11T04:00:51.457Z,88.09
2023-02-11T04:01:51.796Z,88.09
2023-02-11T04:02:53.151Z,88.20
2023-02-11T04:03:51.442Z,88.20
2023-02-11T04:04:52.852Z,88.20
2023-02-11T04:05:52.425Z,88.20
2023-02-11T04:06:51.567Z,88.40
2023-02-11T04:07:52.838Z,88.40
2023-02-11T04:08:51.218Z,88.40
2023-02-11T04:09:52.517Z,88.40
2023-02-11T04:10:52.308Z,88.40
2023-02-11T04:11:51.277Z,88.30
2023-02-11T04:12:52.577Z,88.20
2023-02-11T04:13:52.963Z,88.20
2023-02-11T04:14:51.343Z,88.20
2023-02-11T04:15:51.932Z,88.30
2023-02-11T04:16:51.138Z,88.40
2023-02-11T04:17:51.432Z,88.40
2023-02-11T04:18:51.743Z,88.40
2023-02-11T04:19:51.069Z,88.30
2023-02-11T04:20:51.542Z,88.20
2023-02-11T04:21:51.841Z,88.20
2023-02-11T04:22:51.138Z,88.09
2023-02-11T04:23:51.557Z,88.20
2023-02-11T04:24:51.857Z,88.20
2023-02-11T04:25:51.603Z,88.40
2023-02-11T04:26:51.582Z,88.40
2023-02-11T04:27:50.917Z,88.40
2023-02-11T04:28:51.247Z,88.40
2023-02-11T04:29:51.613Z,88.30
2023-02-11T04:30:51.066Z,88.34
2023-02-11T04:31:51.391Z,88.23
2023-02-11T04:32:51.878Z,88.34
2023-02-11T04:33:50.999Z,88.34
2023-02-11T04:34:51.386Z,88.75
2023-02-11T04:35:52.072Z,89.03
2023-02-11T04:36:51.043Z,89.13
2023-02-11T04:37:52.400Z,89.13
2023-02-11T04:38:50.735Z,89.03
2023-02-11T04:39:51.072Z,89.03
2023-02-11T04:40:51.466Z,89.03
2023-02-11T04:41:50.724Z,88.92
2023-02-11T04:42:51.079Z,88.82
2023-02-11T04:43:51.494Z,88.71
2023-02-11T04:44:50.781Z,88.61
2023-02-11T04:45:51.622Z,88.61
2023-02-11T04:46:51.509Z,88.61
2023-02-11T04:47:50.842Z,88.65
2023-02-11T04:48:52.114Z,88.75
2023-02-11T04:49:50.694Z,88.82
2023-02-11T04:50:50.874Z,88.96
2023-02-11T04:51:51.247Z,89.17
2023-02-11T04:52:51.544Z,89.27
2023-02-11T04:53:51.968Z,89.37
2023-02-11T04:54:51.298Z,89.37
2023-02-11T04:55:51.302Z,89.37
2023-02-11T04:56:51.008Z,89.48
2023-02-11T04:57:51.389Z,89.37
2023-02-11T04:58:50.699Z,89.37
2023-02-11T04:59:51.068Z,89.17
2023-02-11T05:00:51.478Z,89.06
2023-02-11T05:01:50.677Z,88.96
2023-02-11T05:02:51.114Z,88.85
2023-02-11T05:03:50.365Z,88.85
2023-02-11T05:04:50.709Z,88.85
2023-02-11T05:05:51.451Z,88.85
2023-02-11T05:06:50.365Z,88.85
2023-02-11T05:07:50.759Z,89.00
2023-02-11T05:08:51.080Z,89.00
2023-02-11T05:09:51.438Z,89.06
2023-02-11T05:10:50.811Z,89.27
2023-02-11T05:11:52.358Z,89.58
2023-02-11T05:12:50.404Z,89.79
2023-02-11T05:13:50.757Z,89.79
2023-02-11T05:14:51.116Z,89.79
2023-02-11T05:15:51.135Z,89.79
2023-02-11T05:16:50.858Z,89.69
2023-02-11T05:17:51.198Z,89.69
2023-02-11T05:18:52.584Z,89.69
2023-02-11T05:19:50.813Z,89.69
2023-02-11T05:20:51.133Z,89.94
2023-02-11T05:22:01.829Z,90.14
2023-02-11T05:22:51.876Z,90.25
2023-02-11T05:23:50.153Z,90.25
2023-02-11T05:24:51.416Z,90.14
2023-02-11T05:25:51.228Z,90.20
2023-02-11T05:26:50.161Z,90.35
2023-02-11T05:27:50.574Z,90.56
2023-02-11T05:28:51.811Z,90.62
2023-02-11T05:29:50.145Z,90.62
2023-02-11T05:30:50.567Z,90.52
2023-02-11T05:31:50.086Z,90.62
2023-02-11T05:32:50.480Z,90.62
2023-02-11T05:33:51.751Z,90.72
2023-02-11T05:34:50.085Z,90.72
2023-02-11T05:35:50.775Z,90.72
2023-02-11T05:36:50.728Z,90.72
2023-02-11T05:37:50.056Z,90.48
2023-02-11T05:38:50.442Z,90.37
2023-02-11T05:39:50.797Z,90.48
2023-02-11T05:40:50.053Z,90.48
2023-02-11T05:41:50.351Z,90.48
2023-02-11T05:42:50.692Z,90.27
2023-02-11T05:43:49.973Z,90.02
2023-02-11T05:44:50.824Z,89.81
2023-02-11T05:45:51.136Z,89.61
2023-02-11T05:46:50.031Z,89.40
2023-02-11T05:47:50.396Z,89.19
2023-02-11T05:48:50.742Z,88.98
2023-02-11T05:49:50.090Z,88.88
2023-02-11T05:50:50.486Z,88.88
2023-02-11T05:51:49.758Z,89.19
2023-02-11T05:52:50.203Z,89.29
2023-02-11T05:53:50.472Z,89.29
2023-02-11T05:54:49.833Z,89.40
2023-02-11T05:55:51.576Z,89.40
2023-02-11T05:56:50.638Z,89.50
2023-02-11T05:57:50.933Z,89.50
2023-02-11T05:58:50.246Z,89.50
2023-02-11T05:59:50.605Z,89.40
2023-02-11T06:00:49.986Z,89.29
2023-02-11T06:01:50.310Z,89.29
2023-02-11T06:02:49.759Z,89.19
2023-02-11T06:03:50.078Z,89.09
2023-02-11T06:04:51.296Z,88.88
2023-02-11T06:05:50.027Z,88.78
2023-02-11T06:06:50.042Z,88.78
2023-02-11T06:07:50.436Z,88.98
2023-02-11T06:08:49.667Z,89.09
2023-02-11T06:09:50.142Z,89.29
2023-02-11T06:10:50.394Z,89.40
2023-02-11T06:11:49.762Z,89.50
2023-02-11T06:12:50.053Z,89.61
2023-02-11T06:13:50.461Z,89.81
2023-02-11T06:14:49.709Z,89.92
2023-02-11T06:15:50.488Z,90.02
2023-02-11T06:16:49.388Z,90.12
2023-02-11T06:17:49.754Z,90.23
2023-02-11T06:18:50.188Z,90.23
2023-02-11T06:19:49.842Z,90.44
2023-02-11T06:20:49.831Z,90.54
2023-02-11T06:21:50.142Z,90.85
2023-02-11T06:22:49.477Z,90.95
2023-02-11T06:23:49.873Z,91.06
2023-02-11T06:25:01.196Z,91.27
2023-02-11T06:25:50.908Z,91.85
2023-02-11T06:26:50.902Z,91.85
2023-02-11T06:27:49.272Z,91.85
2023-02-11T06:28:49.642Z,91.85
2023-02-11T06:29:50.102Z,91.95
2023-02-11T06:30:49.500Z,92.05
2023-02-11T06:31:49.861Z,92.16
2023-02-11T06:32:50.166Z,92.26
2023-02-11T06:33:49.399Z,92.47
2023-02-11T06:34:49.818Z,92.68
2023-02-11T06:35:50.580Z,92.88
2023-02-11T06:36:49.502Z,92.98
2023-02-11T06:37:49.942Z,93.08
2023-02-11T06:38:49.227Z,93.08
2023-02-11T06:39:49.615Z,93.19
2023-02-11T06:40:49.963Z,93.40
2023-02-11T06:41:49.324Z,93.40
2023-02-11T06:42:49.638Z,93.40
2023-02-11T06:43:49.991Z,93.50
2023-02-11T06:44:49.294Z,93.40
2023-02-11T06:45:49.976Z,93.50
2023-02-11T06:46:49.055Z,93.50
2023-02-11T06:47:49.385Z,93.50
2023-02-11T06:48:49.758Z,93.35
2023-02-11T06:49:49.125Z,93.40
2023-02-11T06:50:49.483Z,93.40
2023-02-11T06:51:49.978Z,93.29
2023-02-11T06:52:49.217Z,93.25
2023-02-11T06:53:49.574Z,93.35
2023-02-11T06:54:48.921Z,93.35
2023-02-11T06:55:49.701Z,93.35
2023-02-11T06:56:49.688Z,93.50
2023-02-11T06:57:49.104Z,93.50
2023-02-11T06:58:49.408Z,93.50
2023-02-11T06:59:50.803Z,93.60
2023-02-11T07:00:49.186Z,93.71
2023-02-11T07:01:49.570Z,93.71
2023-02-11T07:02:49.892Z,93.71
2023-02-11T07:03:49.349Z,93.60
2023-02-11T07:04:49.682Z,93.60
2023-02-11T07:05:49.395Z,93.46
2023-02-11T07:06:49.518Z,93.46
2023-02-11T07:07:49.753Z,93.35
2023-02-11T07:08:49.186Z,93.35
2023-02-11T07:09:49.629Z,93.35
2023-02-11T07:10:49.871Z,93.35
2023-02-11T07:11:49.328Z,93.40
2023-02-11T07:12:49.618Z,93.35
2023-02-11T07:13:48.944Z,93.46
2023-02-11T07:14:49.341Z,93.66
2023-02-11T07:15:49.059Z,93.87
2023-02-11T07:16:49.018Z,93.98
2023-02-11T07:17:49.493Z,94.08
2023-02-11T07:18:48.726Z,94.23
2023-02-11T07:19:49.068Z,94.39
2023-02-11T07:20:49.638Z,94.64
2023-02-11T07:21:48.825Z,94.70
2023-02-11T07:22:49.154Z,94.81
2023-02-11T07:23:49.535Z,94.91
2023-02-11T07:24:48.834Z,95.22
2023-02-11T07:25:49.645Z,95.22
2023-02-11T07:26:48.645Z,95.43
2023-02-11T07:27:48.925Z,95.53
2023-02-11T07:28:49.288Z,95.68
2023-02-11T07:29:49.548Z,95.74
2023-02-11T07:30:48.996Z,95.84
2023-02-11T07:31:49.567Z,95.89
2023-02-11T07:32:48.701Z,95.99
2023-02-11T07:33:49.006Z,96.09
2023-02-11T07:34:48.408Z,96.20
2023-02-11T07:35:49.939Z,96.20
2023-02-11T07:36:50.023Z,96.30
2023-02-11T07:37:48.444Z,96.30
2023-02-11T07:38:49.744Z,96.30
2023-02-11T07:39:49.152Z,96.30
2023-02-11T07:40:48.902Z,96.41
2023-02-11T07:41:48.834Z,96.41
2023-02-11T07:42:49.230Z,96.51
2023-02-11T07:43:49.495Z,96.51
2023-02-11T07:44:50.661Z,96.41
2023-02-11T07:45:49.497Z,96.51
2023-02-11T07:46:48.500Z,96.41
2023-02-11T07:47:48.804Z,96.41
2023-02-11T07:48:49.191Z,96.41
2023-02-11T07:49:48.434Z,96.41
2023-02-11T07:50:48.882Z,96.41
2023-02-11T07:51:48.127Z,96.41
2023-02-11T07:52:48.549Z,96.41
2023-02-11T07:53:48.893Z,96.20
2023-02-11T07:54:48.147Z,95.99
2023-02-11T07:55:48.747Z,95.78
2023-02-11T07:56:48.878Z,95.68
2023-02-11T07:57:48.208Z,95.57
2023-02-11T07:58:49.522Z,95.47
2023-02-11T07:59:49.017Z,95.26
2023-02-11T08:00:49.172Z,95.16
2023-02-11T08:01:49.593Z,94.95
2023-02-11T08:02:49.927Z,94.64
2023-02-11T08:03:49.157Z,94.54
2023-02-11T08:04:48.545Z,94.54
2023-02-11T08:05:49.459Z,94.54
2023-02-11T08:06:48.230Z,94.64
2023-02-11T08:07:48.535Z,94.85
2023-02-11T08:08:48.882Z,94.85
2023-02-11T08:09:48.212Z,94.85
2023-02-11T08:10:48.901Z,94.74
2023-02-11T08:11:47.912Z,94.74
2023-02-11T08:12:48.220Z,94.74
2023-02-11T08:13:48.569Z,94.64
2023-02-11T08:14:47.963Z,94.64
2023-02-11T08:15:48.405Z,94.64
2023-02-11T08:16:48.604Z,94.54
2023-02-11T08:17:47.874Z,94.43
2023-02-11T08:18:49.178Z,94.23
2023-02-11T08:19:49.568Z,94.12
2023-02-11T08:20:48.000Z,93.91
2023-02-11T08:21:48.219Z,93.71
2023-02-11T08:22:48.803Z,93.60
2023-02-11T08:23:47.878Z,93.50
2023-02-11T08:24:50.090Z,93.50
2023-02-11T08:25:49.509Z,93.50
2023-02-11T08:26:47.889Z,93.60
2023-02-11T08:27:48.245Z,93.60
2023-02-11T08:28:48.658Z,93.81
2023-02-11T08:29:47.912Z,93.91
2023-02-11T08:30:48.515Z,94.02
2023-02-11T08:31:49.642Z,94.12
2023-02-11T08:32:47.900Z,94.23
2023-02-11T08:33:48.400Z,94.33
2023-02-11T08:34:47.638Z,94.33
2023-02-11T08:35:47.915Z,94.33
2023-02-11T08:36:49.208Z,94.33
2023-02-11T08:37:47.584Z,94.18
2023-02-11T08:38:47.957Z,94.18
2023-02-11T08:39:48.266Z,94.18
2023-02-11T08:40:48.736Z,94.29
2023-02-11T08:41:47.932Z,94.29
2023-02-11T08:42:48.241Z,94.29
2023-02-11T08:43:47.562Z,94.39
2023-02-11T08:44:47.929Z,94.39
2023-02-11T08:45:48.590Z,94.39
2023-02-11T08:46:48.511Z,94.49
2023-02-11T08:47:47.942Z,94.49
2023-02-11T08:48:48.290Z,94.60
2023-02-11T08:49:47.591Z,94.70
2023-02-11T08:50:47.942Z,94.81
2023-02-11T08:51:48.307Z,94.76
2023-02-11T08:52:47.642Z,94.76
2023-02-11T08:53:47.914Z,94.76
2023-02-11T08:54:48.296Z,94.76
2023-02-11T08:55:47.632Z,94.87
2023-02-11T08:56:47.949Z,94.87
2023-02-11T08:57:47.247Z,95.01
2023-02-11T08:58:47.601Z,95.22
2023-02-11T08:59:47.935Z,95.53
2023-02-11T09:00:47.329Z,95.84
2023-02-11T09:01:47.726Z,95.95
2023-02-11T09:02:47.910Z,96.05
2023-02-11T09:03:48.188Z,96.15
2023-02-11T09:04:47.587Z,96.26
2023-02-11T09:05:47.948Z,96.36
2023-02-11T09:06:47.227Z,96.36
2023-02-11T09:07:47.541Z,96.47
2023-02-11T09:08:47.884Z,96.57
2023-02-11T09:09:47.187Z,96.57
2023-02-11T09:10:47.512Z,96.67
2023-02-11T09:11:48.573Z,96.78
2023-02-11T09:12:47.202Z,96.73
2023-02-11T09:13:47.512Z,96.73
2023-02-11T09:14:47.788Z,96.73
2023-02-11T09:15:47.105Z,96.73
2023-02-11T09:16:47.510Z,96.62
2023-02-11T09:17:47.773Z,96.62
2023-02-11T09:18:47.137Z,96.62
2023-02-11T09:19:47.382Z,96.62
2023-02-11T09:20:47.732Z,96.52
2023-02-11T09:21:47.062Z,96.52
2023-02-11T09:22:47.443Z,96.62
2023-02-11T09:23:48.168Z,96.52
2023-02-11T09:24:47.069Z,96.52
2023-02-11T09:25:47.379Z,96.52
2023-02-11T09:26:47.744Z,96.52
2023-02-11T09:27:47.047Z,96.52
2023-02-11T09:28:47.438Z,96.62
2023-02-11T09:29:47.804Z,96.73
2023-02-11T09:30:47.130Z,96.83
2023-02-11T09:31:47.532Z,96.83
2023-02-11T09:32:47.685Z,96.83
2023-02-11T09:33:46.988Z,96.83
2023-02-11T09:34:47.290Z,96.94
2023-02-11T09:35:47.673Z,97.04
2023-02-11T09:36:46.929Z,97.04
2023-02-11T09:37:48.224Z,97.14
2023-02-11T09:38:48.601Z,97.14
2023-02-11T09:39:46.906Z,97.14
2023-02-11T09:40:48.382Z,97.14
2023-02-11T09:41:47.665Z,97.14
2023-02-11T09:42:47.779Z,97.10
2023-02-11T09:43:48.129Z,97.10
2023-02-11T09:44:48.461Z,97.04
2023-02-11T09:45:47.796Z,97.00
2023-02-11T09:46:47.103Z,97.00
2023-02-11T09:47:47.588Z,97.04
2023-02-11T09:48:46.822Z,97.04
2023-02-11T09:49:48.017Z,97.14
2023-02-11T09:50:48.654Z,97.14
2023-02-11T09:51:47.631Z,97.14
2023-02-11T09:52:46.995Z,97.04
2023-02-11T09:53:47.355Z,97.14
2023-02-11T09:54:47.576Z,97.14
2023-02-11T09:55:47.904Z,97.25
2023-02-11T09:56:48.270Z,97.14
2023-02-11T09:57:46.597Z,97.25
2023-02-11T09:58:47.872Z,97.25
2023-02-11T09:59:47.427Z,97.25
2023-02-11T10:00:46.613Z,97.10
2023-02-11T10:01:47.314Z,97.10
2023-02-11T10:02:47.333Z,97.10
2023-02-11T10:03:46.660Z,97.00
2023-02-11T10:04:48.073Z,97.00
2023-02-11T10:05:47.237Z,97.00
2023-02-11T10:06:46.530Z,97.00
2023-02-11T10:07:47.874Z,97.00
2023-02-11T10:08:47.396Z,97.00
2023-02-11T10:09:46.500Z,97.00
2023-02-11T10:10:46.860Z,97.00
2023-02-11T10:11:48.120Z,97.10
2023-02-11T10:12:47.393Z,97.10
2023-02-11T10:13:46.769Z,97.10
2023-02-11T10:14:48.043Z,97.10
2023-02-11T10:15:46.417Z,97.00
2023-02-11T10:16:46.754Z,96.89
2023-02-11T10:17:47.999Z,96.89
2023-02-11T10:18:47.307Z,96.89
2023-02-11T10:19:47.648Z,97.00
2023-02-11T10:20:47.959Z,96.95
2023-02-11T10:21:47.864Z,97.06
2023-02-11T10:22:46.651Z,97.06
2023-02-11T10:23:47.020Z,96.95
2023-02-11T10:24:46.330Z,96.95
2023-02-11T10:25:47.582Z,96.95
2023-02-11T10:26:46.955Z,96.95
2023-02-11T10:27:46.475Z,97.06
2023-02-11T10:28:47.609Z,96.95
2023-02-11T10:29:46.948Z,96.95
2023-02-11T10:30:46.275Z,97.06
2023-02-11T10:31:47.723Z,97.06
2023-02-11T10:32:46.908Z,97.06
2023-02-11T10:33:46.221Z,96.95
2023-02-11T10:34:47.489Z,96.85
2023-02-11T10:35:46.939Z,96.80
2023-02-11T10:36:46.295Z,96.80
2023-02-11T10:37:47.483Z,96.80
2023-02-11T10:38:47.880Z,96.80
2023-02-11T10:39:47.226Z,96.70
2023-02-11T10:40:46.575Z,96.70
2023-02-11T10:41:46.928Z,96.80
2023-02-11T10:42:46.343Z,96.80
2023-02-11T10:43:46.567Z,96.70
2023-02-11T10:44:45.904Z,96.70
2023-02-11T10:45:46.337Z,96.70
2023-02-11T10:46:47.448Z,96.59
2023-02-11T10:47:46.780Z,96.59
2023-02-11T10:48:47.194Z,96.70
2023-02-11T10:49:46.698Z,96.70
2023-02-11T10:50:45.888Z,96.59
2023-02-11T10:51:46.252Z,96.49
2023-02-11T10:52:46.567Z,96.39
2023-02-11T10:53:45.903Z,96.49
2023-02-11T10:54:46.519Z,96.49
2023-02-11T10:55:46.645Z,96.59
2023-02-11T10:56:46.206Z,96.70
2023-02-11T10:57:47.145Z,96.59
2023-02-11T10:58:46.636Z,96.39
2023-02-11T10:59:45.841Z,96.39
2023-02-11T11:00:47.118Z,96.39
2023-02-11T11:01:46.571Z,96.29
2023-02-11T11:02:45.770Z,96.19
2023-02-11T11:03:47.079Z,96.19
2023-02-11T11:04:47.450Z,96.08
2023-02-11T11:05:46.709Z,96.08
2023-02-11T11:06:47.018Z,96.08
2023-02-11T11:07:47.419Z,96.08
2023-02-11T11:08:45.995Z,95.77
2023-02-11T11:09:45.999Z,95.56
2023-02-11T11:10:46.329Z,95.56
2023-02-11T11:11:45.599Z,95.52
2023-02-11T11:12:46.884Z,95.52
2023-02-11T11:13:46.288Z,95.52
2023-02-11T11:14:45.559Z,95.62
2023-02-11T11:15:45.876Z,95.52
2023-02-11T11:16:47.071Z,95.42
2023-02-11T11:17:46.459Z,95.31
2023-02-11T11:18:45.788Z,95.31
2023-02-11T11:19:46.180Z,95.42
2023-02-11T11:20:45.431Z,95.31
2023-02-11T11:21:46.722Z,95.10
2023-02-11T11:22:47.025Z,94.90
2023-02-11T11:23:46.338Z,95.00
2023-02-11T11:24:46.847Z,95.00
2023-02-11T11:25:46.145Z,95.10
2023-02-11T11:26:45.339Z,95.10
2023-02-11T11:27:46.609Z,95.10
2023-02-11T11:28:47.814Z,95.00
2023-02-11T11:29:47.120Z,94.90
2023-02-11T11:30:45.609Z,94.79
2023-02-11T11:31:46.027Z,94.85
2023-02-11T11:32:46.204Z,94.85
2023-02-11T11:33:46.444Z,94.75
2023-02-11T11:34:45.798Z,94.75
2023-02-11T11:35:47.138Z,94.75
2023-02-11T11:36:46.383Z,94.75
2023-02-11T11:37:45.776Z,94.75
2023-02-11T11:38:47.013Z,94.65
2023-02-11T11:39:46.296Z,94.65
2023-02-11T11:40:46.605Z,94.54
2023-02-11T11:41:46.016Z,94.44
2023-02-11T11:42:45.259Z,94.34
2023-02-11T11:43:45.705Z,94.34
2023-02-11T11:44:45.894Z,94.23
2023-02-11T11:45:45.179Z,94.23
2023-02-11T11:46:45.571Z,94.23
2023-02-11T11:47:45.812Z,94.23
2023-02-11T11:48:45.090Z,93.98
2023-02-11T11:49:45.436Z,93.88
2023-02-11T11:50:45.721Z,93.78
2023-02-11T11:51:44.990Z,93.78
2023-02-11T11:52:46.311Z,93.88
2023-02-11T11:53:46.583Z,93.98
2023-02-11T11:54:46.713Z,94.09
2023-02-11T11:55:45.217Z,94.19
2023-02-11T11:56:45.573Z,94.19
2023-02-11T11:57:45.848Z,94.09
2023-02-11T11:58:45.091Z,94.09
2023-02-11T11:59:45.398Z,94.09
2023-02-11T12:00:45.825Z,94.09
2023-02-11T12:01:45.004Z,94.19
2023-02-11T12:02:46.328Z,94.29
2023-02-11T12:03:46.572Z,94.29
2023-02-11T12:04:45.316Z,94.40
2023-02-11T12:05:45.191Z,94.40
2023-02-11T12:06:45.678Z,94.29
2023-02-11T12:07:45.746Z,94.40
2023-02-11T12:08:45.127Z,94.29
2023-02-11T12:09:45.424Z,94.40
2023-02-11T12:10:45.721Z,94.50
2023-02-11T12:11:45.072Z,94.60
2023-02-11T12:12:46.909Z,94.71
2023-02-11T12:13:45.642Z,94.81
2023-02-11T12:14:44.905Z,94.81
2023-02-11T12:15:45.311Z,94.81
2023-02-11T12:16:45.645Z,94.71
2023-02-11T12:17:45.804Z,94.56
2023-02-11T12:18:47.429Z,94.67
2023-02-11T12:19:45.588Z,94.77
2023-02-11T12:20:45.792Z,94.77
2023-02-11T12:21:45.967Z,94.87
2023-02-11T12:22:46.656Z,94.97
2023-02-11T12:23:44.773Z,95.07
2023-02-11T12:24:45.082Z,95.07
2023-02-11T12:25:45.406Z,95.07
2023-02-11T12:26:44.699Z,95.07
2023-02-11T12:27:45.063Z,94.97
2023-02-11T12:28:45.409Z,95.07
2023-02-11T12:29:45.590Z,94.97
2023-02-11T12:30:45.888Z,94.97
2023-02-11T12:31:46.411Z,95.07
2023-02-11T12:32:45.568Z,95.18
2023-02-11T12:33:45.723Z,95.07
2023-02-11T12:34:45.432Z,94.97
2023-02-11T12:35:45.529Z,94.87
2023-02-11T12:36:45.890Z,94.87
2023-02-11T12:37:45.237Z,94.87
2023-02-11T12:38:44.536Z,94.87
2023-02-11T12:39:45.843Z,94.87
2023-02-11T12:40:45.198Z,94.97
2023-02-11T12:41:44.840Z,95.07
2023-02-11T12:42:44.822Z,95.18
2023-02-11T12:43:45.151Z,95.18
2023-02-11T12:44:44.428Z,95.28
2023-02-11T12:45:44.851Z,95.28
2023-02-11T12:46:46.041Z,95.39
2023-02-11T12:47:45.309Z,95.39
2023-02-11T12:48:45.629Z,95.39
2023-02-11T12:49:45.974Z,95.39
2023-02-11T12:50:45.208Z,95.28
2023-02-11T12:51:45.633Z,95.39
2023-02-11T12:52:45.950Z,95.49